createdAt,value
2024-02-13T00:01:55.952Z,9.50
2024-02-13T00:06:01.323Z,12.07
2024-02-13T00:10:06.881Z,12.47
2024-02-13T00:14:15.729Z,14.90
2024-02-13T00:18:21.271Z,14.90
2024-02-13T00:22:26.774Z,12.93
2024-02-13T00:26:31.857Z,14.63
2024-02-13T00:30:41.008Z,15.57
2024-02-13T00:35:06.461Z,13.87
2024-02-13T00:39:12.732Z,14.53
2024-02-13T00:43:20.912Z,18.03
2024-02-13T00:47:30.201Z,15.87
2024-02-13T00:51:35.247Z,16.03
2024-02-13T00:55:40.208Z,15.37
2024-02-13T00:59:45.351Z,18.80
2024-02-13T01:03:52.950Z,17.40
2024-02-13T01:07:58.061Z,14.27
2024-02-13T01:12:05.263Z,15.90
2024-02-13T01:16:10.540Z,15.33
2024-02-13T01:20:19.911Z,13.50
2024-02-13T01:24:25.668Z,14.17
2024-02-13T01:28:30.650Z,15.73
2024-02-13T01:32:35.887Z,15.97
2024-02-13T01:36:43.517Z,12.43
2024-02-13T01:40:48.925Z,13.07
2024-02-13T01:44:55.221Z,12.60
2024-02-13T01:49:02.298Z,13.30
2024-02-13T01:53:10.417Z,12.37
2024-02-13T01:57:15.665Z,12.00
2024-02-13T02:01:20.634Z,12.80
2024-02-13T02:05:25.670Z,11.43
2024-02-13T02:09:50.182Z,11.87
2024-02-13T02:13:56.500Z,12.13
2024-02-13T02:18:22.183Z,11.27
2024-02-13T02:22:27.373Z,9.83
2024-02-13T02:26:35.201Z,10.20
2024-02-13T02:30:49.729Z,12.03
2024-02-13T02:34:57.266Z,13.00
2024-02-13T02:39:02.314Z,12.80
2024-02-13T02:43:10.472Z,13.63
2024-02-13T02:47:15.470Z,14.90
2024-02-13T02:51:20.438Z,15.13
2024-02-13T02:55:25.480Z,14.67
2024-02-13T02:59:33.110Z,16.80
2024-02-13T03:03:38.358Z,17.77
2024-02-13T03:07:43.507Z,17.20
2024-02-13T03:11:49.119Z,18.43
2024-02-13T03:15:56.915Z,17.80
2024-02-13T03:20:02.434Z,17.93
2024-02-13T03:24:10.134Z,20.53
2024-02-13T03:28:15.182Z,19.47
2024-02-13T03:32:23.056Z,21.40
2024-02-13T03:36:28.503Z,21.47
2024-02-13T03:40:33.519Z,21.57
2024-02-13T03:44:39.003Z,21.20
2024-02-13T03:48:46.776Z,20.80
2024-02-13T03:52:51.816Z,21.73
2024-02-13T03:56:56.897Z,23.63
2024-02-13T04:01:01.980Z,22.50
2024-02-13T04:05:10.751Z,22.83
2024-02-13T04:09:15.939Z,22.30
2024-02-13T04:13:21.362Z,20.27
2024-02-13T04:17:26.421Z,20.70
2024-02-13T04:21:34.154Z,20.80
2024-02-13T04:25:39.616Z,20.53
2024-02-13T04:29:45.098Z,21.07
2024-02-13T04:33:50.222Z,21.07
2024-02-13T04:37:57.959Z,19.27
2024-02-13T04:42:03.067Z,20.00
2024-02-13T04:46:08.050Z,21.73
2024-02-13T04:50:16.552Z,21.37
2024-02-13T04:54:25.188Z,20.07
2024-02-13T04:58:34.413Z,21.87
2024-02-13T05:02:40.931Z,22.00
2024-02-13T05:06:58.553Z,21.47
2024-02-13T05:11:06.814Z,20.73
2024-02-13T05:15:12.763Z,21.23
2024-02-13T05:19:17.938Z,23.00
2024-02-13T05:23:23.074Z,23.50
2024-02-13T05:27:30.784Z,21.87
2024-02-13T05:31:37.308Z,23.73
2024-02-13T05:35:45.798Z,22.83
2024-02-13T05:39:51.675Z,23.87
2024-02-13T05:43:59.309Z,23.00
2024-02-13T05:48:04.860Z,22.70
2024-02-13T05:52:10.032Z,21.60
2024-02-13T05:56:26.517Z,22.87
2024-02-13T06:00:36.092Z,23.37
2024-02-13T06:04:41.207Z,22.30
2024-02-13T06:08:46.755Z,23.57
2024-02-13T06:12:51.822Z,22.93
2024-02-13T06:16:59.723Z,22.97
2024-02-13T06:21:04.864Z,22.90
2024-02-13T06:25:12.622Z,22.70
2024-02-13T06:29:18.705Z,22.63
2024-02-13T06:33:26.444Z,21.73
2024-02-13T06:37:31.908Z,23.13
2024-02-13T06:41:37.953Z,20.77
2024-02-13T06:45:43.679Z,21.97
2024-02-13T06:49:51.316Z,19.47
2024-02-13T06:53:56.550Z,21.17
2024-02-13T06:58:01.672Z,21.03
2024-02-13T07:02:06.779Z,20.30
2024-02-13T07:06:23.222Z,20.73
2024-02-13T07:10:31.616Z,20.73
2024-02-13T07:14:49.521Z,21.23
2024-02-13T07:18:55.084Z,20.93
2024-02-13T07:23:03.048Z,20.87
2024-02-13T07:27:08.658Z,19.97
2024-02-13T07:31:13.732Z,20.77
2024-02-13T07:35:19.065Z,18.97
2024-02-13T07:39:33.071Z,21.00
2024-02-13T07:43:38.196Z,19.77
2024-02-13T07:47:43.363Z,19.17
2024-02-13T07:51:50.110Z,18.57
2024-02-13T07:55:58.109Z,19.53
2024-02-13T08:00:05.197Z,18.77
2024-02-13T08:04:12.039Z,18.93
2024-02-13T08:08:17.137Z,18.83
2024-02-13T08:12:25.979Z,18.07
2024-02-13T08:16:31.246Z,17.50
2024-02-13T08:20:37.035Z,18.57
2024-02-13T08:24:42.065Z,17.80
2024-02-13T08:28:50.941Z,18.93
2024-02-13T08:32:56.204Z,15.40
2024-02-13T08:37:01.392Z,16.60
2024-02-13T08:41:06.582Z,15.57
2024-02-13T08:45:14.903Z,16.50
2024-02-13T08:49:33.015Z,15.50
2024-02-13T08:53:38.223Z,14.67
2024-02-13T08:57:43.306Z,14.00
2024-02-13T09:01:50.912Z,13.70
2024-02-13T09:05:57.855Z,13.30
2024-02-13T09:10:03.165Z,12.80
2024-02-13T09:14:11.097Z,12.13
2024-02-13T09:18:19.111Z,11.83
2024-02-13T09:22:24.481Z,10.97
2024-02-13T09:26:29.588Z,11.33
2024-02-13T09:30:35.231Z,11.20
2024-02-13T09:34:43.628Z,10.40
2024-02-13T09:38:54.105Z,9.70
2024-02-13T09:42:59.274Z,9.63
2024-02-13T09:47:05.412Z,8.60
2024-02-13T09:51:14.822Z,8.83
2024-02-13T09:55:21.099Z,8.37
2024-02-13T09:59:26.479Z,7.63
2024-02-13T10:03:31.678Z,7.70
2024-02-13T10:07:40.717Z,7.37
2024-02-13T10:11:49.781Z,8.63
2024-02-13T10:15:56.226Z,7.37
2024-02-13T10:20:01.369Z,6.70
2024-02-13T10:24:14.103Z,7.10
2024-02-13T10:28:21.053Z,7.33
2024-02-13T10:32:26.354Z,6.87
2024-02-13T10:36:31.554Z,6.40
2024-02-13T10:40:41.265Z,6.83
2024-02-13T10:44:53.655Z,6.63
2024-02-13T10:49:05.883Z,6.27
2024-02-13T10:53:11.241Z,6.67
2024-02-13T10:57:19.893Z,5.77
2024-02-13T11:01:27.654Z,5.90
2024-02-13T11:05:33.510Z,6.03
2024-02-13T11:09:40.095Z,6.13
2024-02-13T11:13:47.714Z,5.80
2024-02-13T11:17:57.843Z,6.23
2024-02-13T11:22:03.058Z,6.30
2024-02-13T11:26:36.220Z,5.33
2024-02-13T11:30:44.872Z,5.17
2024-02-13T11:34:52.509Z,4.87
2024-02-13T11:39:00.208Z,5.73
2024-02-13T11:43:05.941Z,5.57
2024-02-13T11:47:13.661Z,5.80
2024-02-13T11:51:19.000Z,5.93
2024-02-13T11:55:25.343Z,5.13
2024-02-13T11:59:36.642Z,5.23
2024-02-13T12:03:44.448Z,4.63
2024-02-13T12:07:50.701Z,5.77
2024-02-13T12:11:56.013Z,4.97
2024-02-13T12:16:01.640Z,5.23
2024-02-13T12:20:13.765Z,4.50
2024-02-13T12:24:22.114Z,4.60
2024-02-13T12:28:27.572Z,4.87
2024-02-13T12:32:35.287Z,4.43
2024-02-13T12:36:43.182Z,4.83
2024-02-13T12:40:49.586Z,4.63
2024-02-13T12:44:55.131Z,5.17
2024-02-13T12:49:01.365Z,4.57
2024-02-13T12:53:10.634Z,4.77
2024-02-13T12:57:16.354Z,4.40
2024-02-13T13:01:27.953Z,4.07
2024-02-13T13:05:33.377Z,4.23
2024-02-13T13:09:43.928Z,3.83
2024-02-13T13:13:49.191Z,4.00
2024-02-13T13:17:55.630Z,4.63
2024-02-13T13:22:00.812Z,4.53
2024-02-13T13:26:12.522Z,4.37
2024-02-13T13:30:18.942Z,4.17
2024-02-13T13:34:40.741Z,4.17
2024-02-13T13:38:49.593Z,4.33
2024-02-13T13:42:58.265Z,4.00
2024-02-13T13:47:06.337Z,4.63
2024-02-13T13:51:12.429Z,3.97
2024-02-13T13:55:17.717Z,3.97
2024-02-13T13:59:25.372Z,3.43
2024-02-13T14:03:31.211Z,3.10
2024-02-13T14:07:36.884Z,3.33
2024-02-13T14:11:42.045Z,3.50
2024-02-13T14:15:50.996Z,3.03
2024-02-13T14:19:56.712Z,3.47
2024-02-13T14:24:01.731Z,3.30
2024-02-13T14:28:07.847Z,2.97
2024-02-13T14:32:16.268Z,3.00
2024-02-13T14:36:24.706Z,2.57
2024-02-13T14:40:31.524Z,2.80
2024-02-13T14:44:36.543Z,3.13
2024-02-13T14:48:47.731Z,2.67
2024-02-13T14:52:53.237Z,2.33
2024-02-13T14:56:58.276Z,2.67
2024-02-13T15:01:03.385Z,2.70
2024-02-13T15:05:11.734Z,2.57
2024-02-13T15:09:17.375Z,3.03
2024-02-13T15:13:22.769Z,2.87
2024-02-13T15:17:27.920Z,2.63
2024-02-13T15:21:36.028Z,3.00
2024-02-13T15:25:41.011Z,2.77
2024-02-13T15:29:46.891Z,3.10
2024-02-13T15:33:52.233Z,2.80
2024-02-13T15:38:12.392Z,2.83
2024-02-13T15:42:30.334Z,3.60
2024-02-13T15:46:47.853Z,3.20
2024-02-13T15:50:54.070Z,2.40
2024-02-13T15:55:02.243Z,2.73
2024-02-13T15:59:10.881Z,2.73
2024-02-13T16:03:19.903Z,3.77
2024-02-13T16:07:26.755Z,4.50
2024-02-13T16:11:34.496Z,3.10
2024-02-13T16:15:39.697Z,3.60
2024-02-13T16:19:46.812Z,3.93
2024-02-13T16:23:51.985Z,2.77
2024-02-13T16:28:00.024Z,2.70
2024-02-13T16:32:05.594Z,2.70
2024-02-13T16:36:11.648Z,2.90
2024-02-13T16:40:19.192Z,2.73
2024-02-13T16:44:27.037Z,2.33
2024-02-13T16:48:32.232Z,2.33
2024-02-13T16:52:37.421Z,2.70
2024-02-13T16:56:42.610Z,2.53
2024-02-13T17:00:53.051Z,2.57
2024-02-13T17:04:59.083Z,2.57
2024-02-13T17:09:04.928Z,2.40
2024-02-13T17:13:10.113Z,2.40
2024-02-13T17:17:18.771Z,3.07
2024-02-13T17:21:23.942Z,3.03
2024-02-13T17:25:29.209Z,3.70
2024-02-13T17:29:34.289Z,2.70
2024-02-13T17:33:42.216Z,2.37
2024-02-13T17:37:47.592Z,2.80
2024-02-13T17:41:52.593Z,2.40
2024-02-13T17:45:57.633Z,2.60
2024-02-13T17:50:05.573Z,2.60
2024-02-13T17:54:14.072Z,2.20
2024-02-13T17:58:19.298Z,2.30
2024-02-13T18:02:24.276Z,2.60
2024-02-13T18:06:33.263Z,2.10
2024-02-13T18:10:38.624Z,2.73
2024-02-13T18:14:43.858Z,2.60
2024-02-13T18:18:51.853Z,2.30
2024-02-13T18:23:00.115Z,2.90
2024-02-13T18:27:06.370Z,2.37
2024-02-13T18:31:11.427Z,2.27
2024-02-13T18:35:18.242Z,2.47
2024-02-13T18:39:26.952Z,2.93
2024-02-13T18:43:31.984Z,2.67
2024-02-13T18:47:37.473Z,2.70
2024-02-13T18:51:43.035Z,2.57
2024-02-13T18:55:50.680Z,2.70
2024-02-13T18:59:55.830Z,2.67
2024-02-13T19:04:00.889Z,2.90
2024-02-13T19:08:05.921Z,2.77
2024-02-13T19:12:13.609Z,2.87
2024-02-13T19:16:18.680Z,3.10
2024-02-13T19:20:23.848Z,2.87
2024-02-13T19:24:28.849Z,2.53
2024-02-13T19:28:37.889Z,2.50
2024-02-13T19:32:43.596Z,4.73
2024-02-13T19:36:48.676Z,4.13
2024-02-13T19:40:53.698Z,3.30
2024-02-13T19:45:01.567Z,3.73
2024-02-13T19:49:11.640Z,3.10
2024-02-13T19:53:37.105Z,3.80
2024-02-13T19:58:02.904Z,3.97
2024-02-13T20:02:32.410Z,3.73
2024-02-13T20:06:57.484Z,3.87
2024-02-13T20:11:02.675Z,3.80
2024-02-13T20:15:09.855Z,4.07
2024-02-13T20:19:18.075Z,4.87
2024-02-13T20:23:23.450Z,4.57
2024-02-13T20:27:28.446Z,3.87
2024-02-13T20:31:34.128Z,3.93
2024-02-13T20:35:44.471Z,4.20
2024-02-13T20:39:50.886Z,4.70
2024-02-13T20:43:55.963Z,4.70
2024-02-13T20:48:02.872Z,4.43
2024-02-13T20:52:12.714Z,4.73
2024-02-13T20:56:18.757Z,4.20
2024-02-13T21:00:24.018Z,4.67
2024-02-13T21:04:29.902Z,4.77
2024-02-13T21:08:37.602Z,4.03
2024-02-13T21:12:42.656Z,4.03
2024-02-13T21:16:47.898Z,4.77
2024-02-13T21:21:09.388Z,4.33
2024-02-13T21:25:14.442Z,4.00
2024-02-13T21:29:19.437Z,4.77
2024-02-13T21:33:24.680Z,4.67
2024-02-13T21:37:29.819Z,4.50
2024-02-13T21:41:37.700Z,4.77
2024-02-13T21:45:42.816Z,4.40
2024-02-13T21:49:47.914Z,4.30
2024-02-13T21:53:53.021Z,4.33
2024-02-13T21:58:01.318Z,4.83
2024-02-13T22:02:06.753Z,7.53
2024-02-13T22:06:13.320Z,4.87
2024-02-13T22:10:18.418Z,6.97
2024-02-13T22:14:26.223Z,6.17
2024-02-13T22:18:31.530Z,7.40
2024-02-13T22:22:36.636Z,5.20
2024-02-13T22:26:42.580Z,4.63
2024-02-13T22:30:50.587Z,5.00
2024-02-13T22:35:07.083Z,4.50
2024-02-13T22:39:13.563Z,4.30
2024-02-13T22:43:19.087Z,4.30
2024-02-13T22:47:26.703Z,4.63
2024-02-13T22:51:32.018Z,4.57
2024-02-13T22:55:37.054Z,4.30
2024-02-13T22:59:42.157Z,4.40
2024-02-13T23:03:51.096Z,4.70
2024-02-13T23:07:56.116Z,4.33
2024-02-13T23:12:01.367Z,4.43
2024-02-13T23:16:08.533Z,4.93
2024-02-13T23:20:17.628Z,5.13
2024-02-13T23:24:22.737Z,5.53
2024-02-13T23:28:30.152Z,5.20
2024-02-13T23:32:37.491Z,5.37
2024-02-13T23:36:45.162Z,5.37
2024-02-13T23:40:51.465Z,5.60
2024-02-13T23:44:58.305Z,5.37
2024-02-13T23:49:03.663Z,5.30
2024-02-13T23:53:11.922Z,5.83
2024-02-13T23:57:17.157Z,5.53
